Main page
METAR-TAF:

METAR-TAF

Airports :

London, England

London City Airport

latitude: 51-30N, longitude: 000-03E, elevation: 5 m

Current weather observation

The report was made 36 minutes ago, at 22:20 UTC
Wind 6 kt from the Southwest
Temperature 10°C
Humidity 76%
Pressure 1015 hPa
Visibility 10 km or more

METAR: EGLC 262220Z AUTO 23006KT 9999 NCD 10/06 Q1015

Time: 23:56 (22:56 UTC)

Forecast

The report was made 5 hours and 52 minutes ago, at 17:04 UTC
Forecast valid from 26 at 18 UTC to 26 at 21 UTC
Wind 15 kt from the West
Visibility 10 km or more
Scattered clouds at a height of 4000 ft
Probability 30% :
Temporary
from 26 at 18 UTC to 26 at 20 UTC
Wind 18 kt from the West with gusts up to 28 kt

TAF: EGLC 261704Z 2618/2621 26015KT 9999 SCT040 PROB30 TEMPO 2618/2620 27018G28KT

Weather observations and forecasts of more than 4000 airports (METAR and TAF reports).

The available stations are represented by yellow and red dots on the map.

Hover mouse over dot to see the name of the station.

Then click to see weather observations and forecasts.

To change the map : click on the green buttons with a black cross to zoom in, on the green button with a dash to zoom out, or on the green arrows for adjacent maps.


METAR-TAF: